x

Boston 16 Nm East Of Boston, Ma (44013) Wave Buoy

1:50pm - Sat 27th May 2017 All times are EDT. -4 hours from GMT.

  • Sig Wave height 2.3ft
  • Swell Direction
  • Peak Period 8s
  • Average Period 6s
  • Wind
    7mph, 7mph gusts
  • Sea Temp 54°f
  • Air Temp 53°f
  • Sea Pressure 1011.3mb
  • Boston 16 Nm East Of Boston, Ma
  • Boston 16 Nm East Of Boston, Ma

More Historic Weather Station data

Upgrade to MSW Pro to gain access to the past 30 days of data for over 8000 Wavebouys and Weather Stations around the globe.

Join Pro

Comparision Forecast

View Surf forecast
   
Sat 05/27 1:50pm 2.5ft 8s 6s 7 7 mph 1011.3mb 54f 53f
12:50pm 2.5ft 7s 6s 9 11 mph 1011mb 54f 52f
11:50am 2.5ft 8s 6s 11 13 mph 1010.8mb 55f 53f
10:50am 2.5ft 8s 6s 7 9 mph 1010.9mb 54f 55f
9:50am 2.5ft 8s 6s 7 7 mph 1010.1mb 53f 54f
8:50am 2.5ft 8s 6s 4 7 mph 1009.8mb 53f 53f
7:50am 2.5ft 8s 6s 7 9 mph 1009.5mb 53f 53f
6:50am 2.5ft 8s 6s 9 9 mph 1009.4mb 53f 53f
5:50am 2.5ft 8s 6s 11 13 mph 1008.8mb 53f 52f
4:50am 2.5ft 9s 7s 9 11 mph 1007.8mb 53f 53f
3:50am 2.5ft 8s 6s 7 9 mph 1007.4mb 53f 53f
2:50am 3ft 8s 6s 7 7 mph 1007mb 53f 53f
1:50am 3.5ft 8s 6s 7 9 mph 1006.5mb 53f 53f
12:50am 3.5ft 7s 6s 7 9 mph 1006.4mb 53f 52f
Fri 05/26 11:50pm 4ft 8s 6s 4 7 mph 1006.2mb 53f 52f
10:50pm 4.5ft 8s 7s 2 4 mph 1005.6mb 53f 52f
9:50pm 4.5ft 8s 6s 4 4 mph 1005.4mb 53f 52f
8:50pm 4.5ft 8s 6s 4 7 mph 1004.4mb 53f 52f
7:50pm 5ft 8s 6s 7 7 mph 1004mb 53f 52f
6:50pm 5ft 8s 6s 4 7 mph 1003.1mb 53f 53f
5:50pm 4.5ft 8s 6s 4 7 mph 1002.2mb 53f 51f
4:50pm 5ft 8s 6s 4 7 mph 1001.4mb 53f 51f
3:50pm 4.5ft 8s 6s 7 9 mph 1000.7mb 53f 52f
2:50pm 5ft 8s 5s 9 9 mph 1000mb 53f 52f
1:50pm 5ft 7s 5s 11 16 mph 999mb 53f 52f
12:50pm 5.5ft 8s 5s 13 18 mph 998.5mb 53f 51f
11:50am 6ft 8s 5s 27 31 mph 997.4mb 52f 50f
10:50am 6ft 8s 6s 25 29 mph 996.9mb 52f 49f
9:50am 6ft 8s 5s 18 20 mph 996.6mb 52f 49f
8:50am 6ft 8s 5s 16 18 mph 996.8mb 52f 50f
7:50am 7ft 8s 6s 18 20 mph 996.8mb 52f 50f
6:50am 6ft 8s 5s 20 25 mph 997.5mb 52f 50f
5:50am 6ft 8s 5s 22 29 mph 997.4mb 52f 50f
4:50am 6ft 8s 6s 25 31 mph 996.6mb 52f 50f
3:50am 6ft 8s 6s 27 31 mph 997.4mb 52f 50f
2:50am 6ft 8s 6s 16 18 mph 999.3mb 53f 51f
1:50am 6ft 7s 6s 16 20 mph 998.4mb 53f 51f
12:50am 6ft 8s 6s 16 22 mph 999.7mb 53f 51f
Thu 05/25 11:50pm 6ft 8s 6s 16 20 mph 1000.7mb 53f 51f
10:50pm 6ft 7s 5s 16 20 mph 1001.7mb 53f 51f
9:50pm 6ft 7s 5s 11 16 mph 1003.6mb 53f 52f
8:50pm 6ft 6s 5s 16 20 mph 1003.7mb 53f 51f
7:50pm 5.5ft 6s 5s 16 20 mph 1004.4mb 53f 52f
6:50pm 5ft 6s 5s 20 22 mph 1004.6mb 52f 51f
5:50pm 5ft 5s 5s 22 27 mph 1004.4mb 52f 52f
4:50pm 5ft 6s 5s 22 27 mph 1005.5mb 52f 52f
3:50pm 5ft 5s 5s 20 25 mph 1006.1mb 52f 52f
2:50pm 5ft 6s 5s 22 27 mph 1006.5mb 52f 52f
1:50pm 5ft 5s 5s 22 29 mph 1006.8mb 52f 51f
12:50pm 4ft 4s 4s 25 29 mph 1007.6mb 52f 52f
11:50am 3.5ft 4s 4s 25 29 mph 1008.3mb 52f 53f
10:50am 3.5ft 4s 4s 22 27 mph 1008.9mb 52f 53f
9:50am 3ft 9s 4s 18 22 mph 1010.4mb 52f 53f
8:50am 3ft 3s 4s 18 22 mph 1010.4mb 53f 54f
7:50am 2.5ft 7s 4s 16 20 mph 1010.8mb 53f 54f
6:50am 2.5ft 9s 4s 13 16 mph 1011mb 53f 54f
5:50am 2.5ft 9s 4s 13 16 mph 1010.9mb 54f 54f
4:50am 2ft 10s 5s 13 16 mph 1011.2mb 54f 54f
3:50am 1.6ft 7s 6s 11 11 mph 1010.4mb 54f 54f
2:50am 1.3ft 7s 6s 9 9 mph 1010.6mb 54f 54f
1:50am 1.6ft 7s 6s 7 7 mph 1011.1mb 54f 54f
12:50am 1.3ft 8s 5s 4 4 mph 1011.3mb 54f 54f
Wed 05/24 11:50pm 1.6ft 8s 5s 4 4 mph 1010.5mb 54f 54f
10:50pm 2ft 7s 6s 4 4 mph 1010.6mb 54f 54f
9:50pm 2.5ft 7s 6s 4 4 mph 1011.4mb 54f 54f
8:50pm 2.5ft 7s 6s 4 4 mph 1010.6mb 55f 54f
7:50pm 2.5ft 8s 6s 7 7 mph 1009.7mb 55f 55f
6:50pm 2ft 7s 6s 4 4 mph 1010mb 56f 56f
5:50pm 2ft 8s 7s 2 2 mph 1010.6mb 56f 56f
4:50pm 1.3ft 7s 6s 4 7 mph 1009.8mb 56f 56f
3:50pm 1.3ft 8s 6s 9 9 mph 1008.4mb 56f 56f
2:50pm 1.3ft 8s 6s 4 7 mph 1009.1mb 56f 57f
1:50pm 1ft 6s 6s 2 2 mph 1009.3mb 55f 56f
12:50pm 1ft 7s 6s 2 2 mph 1009.1mb 55f 56f
11:50am 1.3ft 7s 5s 7 9 mph 1008.4mb 55f 56f
10:50am 1.3ft 6s 5s 4 4 mph 1008mb 55f 55f
9:50am 1.3ft 6s 5s  -  2 mph 1007.9mb 55f 55f
8:50am 1.3ft 5s 5s 4 4 mph 1007.9mb 54f 54f
7:50am 1.3ft 5s 5s 2 4 mph 1007.8mb 54f 54f
6:50am 1ft 9s 5s 7 7 mph 1007.7mb 54f 54f
5:50am 1ft 9s 6s 7 7 mph 1007.8mb 54f 54f
4:50am 1ft 5s 6s 4 4 mph 1007.6mb 54f 54f
3:50am 1ft 6s 6s 2 2 mph 1008mb 54f 54f
2:50am 1ft 9s 6s 2 2 mph 1008.3mb 54f 55f
1:50am 1ft 6s 6s 4 4 mph 1008.1mb 54f 55f
12:50am 1ft 6s 6s 9 9 mph 1008.7mb 54f 55f
Tue 05/23 11:50pm 1ft 10s 5s 9 9 mph 1008.9mb 54f 55f
10:50pm 1ft 7s 5s 9 11 mph 1009.2mb 54f 55f
9:50pm 1ft 6s 5s 9 11 mph 1009.3mb 54f 55f
8:50pm 1.3ft 6s 5s 9 11 mph 1009.3mb 54f 55f
7:50pm 1.3ft 5s 5s 11 11 mph 1009.3mb 54f 54f